Time;durP1;ratioP1;P1;durP2;ratioP2;P2;SDS_P1;SDS_P2;PMS_P1;PMS_P2;Temp;Humidity;BMP_temperature;BMP_pressure;BME280_temperature;BME280_humidity;BME280_pressure;Samples;Min_cycle;Max_cycle;Signal;HPM_P1;HPM_P2
2023/02/16 00:01:47;;;;;;;;;34.00;32.67;;;;;10.82;100.00;101863.75;4925960;28;45325;-82
2023/02/16 00:04:29;;;;;;;;;36.33;28.33;;;;;10.94;100.00;101858.78;4909899;28;45543;-82
2023/02/16 00:06:56;;;;;;;;;31.67;29.00;;;;;10.87;100.00;101870.13;4927730;28;45329;-82
2023/02/16 00:09:23;;;;;;;;;34.00;32.00;;;;;10.86;100.00;101859.44;4929279;28;45433;-83
2023/02/16 00:14:37;;;;;;;;;36.33;31.33;;;;;10.86;100.00;101859.44;4932419;28;45436;-83
2023/02/16 00:17:04;;;;;;;;;35.00;32.67;;;;;10.76;100.00;101840.50;4913169;28;45516;-83
2023/02/16 00:19:38;;;;;;;;;29.67;29.67;;;;;10.84;100.00;101851.38;4930152;28;45471;-83
2023/02/16 00:22:04;;;;;;;;;35.67;31.00;;;;;10.77;100.00;101855.63;4913639;28;45371;-82
2023/02/16 00:24:31;;;;;;;;;36.67;33.00;;;;;10.73;100.00;101843.09;4912157;28;45442;-82
2023/02/16 00:26:58;;;;;;;;;34.67;33.33;;;;;10.70;100.00;101847.41;4931265;28;44681;-82
2023/02/16 00:29:32;;;;;;;;;32.33;31.00;;;;;10.76;100.00;101851.16;4929666;28;46701;-83
2023/02/16 00:31:59;;;;;;;;;35.67;34.67;;;;;10.71;100.00;101849.22;4929851;28;45460;-82
2023/02/16 00:34:38;;;;;;;;;39.67;35.67;;;;;10.73;100.00;101852.84;4929735;28;45440;-82
2023/02/16 00:37:06;;;;;;;;;45.00;34.33;;;;;10.63;100.00;101846.31;4913676;28;45537;-83
2023/02/16 00:39:33;;;;;;;;;42.00;34.67;;;;;10.60;100.00;101849.78;4912511;28;48052;-82
2023/02/16 00:42:24;;;;;;;;;33.33;33.00;;;;;10.69;100.00;101842.94;4912870;28;45634;-83
2023/02/16 00:44:55;;;;;;;;;41.33;34.33;;;;;10.65;100.00;101838.38;4921867;28;45425;-82
2023/02/16 00:47:22;;;;;;;;;36.67;34.67;;;;;10.65;100.00;101835.72;4929729;28;45467;-82
2023/02/16 00:49:51;;;;;;;;;39.00;33.00;;;;;10.64;100.00;101825.94;4910685;28;47123;-83
2023/02/16 00:52:30;;;;;;;;;40.33;34.33;;;;;10.69;100.00;101830.53;4910641;28;45815;-83
2023/02/16 00:54:56;;;;;;;;;35.00;32.67;;;;;10.61;100.00;101826.75;4928405;28;45935;-83
2023/02/16 00:57:22;;;;;;;;;33.33;32.00;;;;;10.66;100.00;101824.22;4911058;28;45377;-83
2023/02/16 00:59:54;;;;;;;;;37.33;32.00;;;;;10.69;100.00;101830.53;4910922;28;47425;-83
2023/02/16 01:02:19;;;;;;;;;36.67;33.33;;;;;10.70;100.00;101831.44;4896530;29;45405;-83
2023/02/16 01:04:45;;;;;;;;;37.00;34.00;;;;;10.72;100.00;101824.41;4910626;29;45401;-83
2023/02/16 01:12:40;;;;;;;;;37.33;33.67;;;;;10.74;100.00;101815.59;4909159;29;45454;-83
2023/02/16 01:15:12;;;;;;;;;32.00;30.33;;;;;10.82;100.00;101818.50;4909347;29;45466;-83
2023/02/16 01:17:37;;;;;;;;;33.67;33.00;;;;;10.82;100.00;101813.19;4893403;29;44945;-83
2023/02/16 01:20:12;;;;;;;;;41.00;36.33;;;;;10.95;100.00;101828.69;4892306;29;48583;-83
2023/02/16 01:22:38;;;;;;;;;32.33;31.00;;;;;10.96;100.00;101824.25;4894383;29;45504;-83
2023/02/16 01:25:03;;;;;;;;;40.33;34.33;;;;;10.98;100.00;101817.22;4912024;29;45479;-83
2023/02/16 01:27:30;;;;;;;;;35.33;33.33;;;;;11.05;100.00;101819.22;4893819;29;45629;-83
2023/02/16 01:29:55;;;;;;;;;39.00;37.00;;;;;10.99;100.00;101819.03;4904465;29;47081;-82
2023/02/16 01:32:20;;;;;;;;;43.67;37.33;;;;;11.03;100.00;101823.59;4910032;29;45439;-83
2023/02/16 01:34:46;;;;;;;;;40.67;35.33;;;;;11.01;100.00;101810.22;4893503;28;45811;-83
2023/02/16 01:37:22;;;;;;;;;39.67;36.33;;;;;10.97;100.00;101789.69;4895318;29;45478;-83
2023/02/16 01:39:48;;;;;;;;;38.00;36.00;;;;;11.02;100.00;101808.47;4893501;29;47187;-83
2023/02/16 01:42:28;;;;;;;;;39.67;36.33;;;;;11.13;100.00;101798.13;4892766;29;45422;-83
2023/02/16 01:45:09;;;;;;;;;37.00;32.67;;;;;11.13;100.00;101799.03;4910203;29;45464;-82
2023/02/16 01:47:43;;;;;;;;;35.67;32.00;;;;;11.09;100.00;101796.22;4893269;29;45338;-83
2023/02/16 01:50:24;;;;;;;;;38.67;34.00;;;;;11.11;100.00;101800.75;4892607;29;47480;-82
2023/02/16 01:52:58;;;;;;;;;39.33;37.33;;;;;11.10;100.00;101795.38;4909338;29;44990;-82
2023/02/16 01:55:29;;;;;;;;;37.00;33.67;;;;;11.08;100.00;101797.09;4910466;29;45302;-82
2023/02/16 01:57:57;;;;;;;;;44.33;37.00;;;;;11.08;100.00;101786.44;4893017;29;44802;-83
2023/02/16 02:00:27;;;;;;;;;42.33;36.67;;;;;11.13;100.00;101790.13;4893455;29;47800;-83
2023/02/16 02:05:33;;;;;;;;;39.00;36.00;;;;;11.01;100.00;101785.38;4892199;29;46075;-83
2023/02/16 02:05:42;;;;;;;;;40.67;36.00;;;;;11.01;100.00;101790.69;4908603;29;45357;-83
2023/02/16 02:08:22;;;;;;;;;29.67;27.33;;;;;11.06;100.00;101782.84;4910318;29;45430;-83
2023/02/16 02:11:10;;;;;;;;;45.00;38.00;;;;;10.97;100.00;101768.41;4892020;29;47582;-83
2023/02/16 02:13:42;;;;;;;;;41.00;34.67;;;;;10.97;100.00;101776.41;4909430;29;45413;-83
2023/02/16 02:16:09;;;;;;;;;41.00;35.33;;;;;10.91;100.00;101778.88;4910107;29;45458;-83
2023/02/16 02:18:35;;;;;;;;;46.67;38.33;;;;;10.87;100.00;101771.66;4891904;29;45422;-83
2023/02/16 02:24:12;;;;;;;;;38.67;34.33;;;;;10.77;100.00;101764.25;4907953;29;45303;-83
2023/02/16 02:30:41;;;;;;;;;40.00;35.67;;;;;10.67;100.00;101765.75;4909308;29;45566;-82
2023/02/16 02:33:34;;;;;;;;;45.67;38.33;;;;;10.63;100.00;101771.84;4886379;29;47076;-83
2023/02/16 02:36:13;;;;;;;;;36.00;34.00;;;;;10.58;100.00;101768.09;4908368;29;45666;-82
2023/02/16 02:38:59;;;;;;;;;39.33;35.67;;;;;10.59;100.00;101768.16;4909901;29;45453;-83
2023/02/16 02:44:25;;;;;;;;;35.33;34.67;;;;;10.55;100.00;101768.03;4908225;29;45451;-83
2023/02/16 02:46:52;;;;;;;;;40.00;37.00;;;;;10.53;100.00;101760.00;4890913;29;45338;-82
2023/02/16 02:49:17;;;;;;;;;43.67;37.00;;;;;10.51;100.00;101764.38;4910038;29;45484;-83
2023/02/16 02:51:44;;;;;;;;;41.67;36.67;;;;;10.53;100.00;101760.00;4891770;29;45505;-83
2023/02/16 03:00:43;;;;;;;;;46.67;36.33;;;;;10.59;100.00;101752.22;4908223;29;45348;-83
2023/02/16 03:03:20;;;;;;;;;46.00;39.33;;;;;10.57;100.00;101739.72;4908916;28;45386;-83
2023/02/16 03:05:58;;;;;;;;;40.33;35.00;;;;;10.56;100.00;101738.84;4907303;29;45495;-83
2023/02/16 03:08:27;;;;;;;;;49.33;39.33;;;;;10.53;100.00;101736.06;4890235;29;45447;-83
2023/02/16 03:13:57;;;;;;;;;37.33;35.67;;;;;10.58;100.00;101758.41;4909793;29;45931;-83
2023/02/16 03:16:28;;;;;;;;;44.67;38.33;;;;;10.55;100.00;101752.97;4907195;29;46745;-83
2023/02/16 03:30:06;;;;;;;;;46.67;38.00;;;;;10.15;100.00;101730.41;4895175;29;45706;-82
2023/02/16 03:32:32;;;;;;;;;44.67;35.00;;;;;10.14;100.00;101746.31;4906985;29;45401;-83
2023/02/16 03:34:58;;;;;;;;;39.00;35.33;;;;;10.06;100.00;101735.47;4907436;29;44858;-83
2023/02/16 03:37:24;;;;;;;;;39.33;36.33;;;;;10.07;100.00;101741.66;4906416;29;48002;-83
2023/02/16 03:42:33;;;;;;;;;43.33;38.00;;;;;10.02;100.00;101752.16;4908871;29;45528;-83
2023/02/16 03:44:58;;;;;;;;;43.67;37.67;;;;;9.98;100.00;101750.25;4911345;29;45365;-83
2023/02/16 03:47:24;;;;;;;;;44.67;36.67;;;;;10.00;100.00;101761.84;4913533;29;45739;-83
2023/02/16 03:49:49;;;;;;;;;38.67;34.67;;;;;9.95;100.00;101763.44;4912975;29;45419;-82
2023/02/16 03:52:15;;;;;;;;;44.00;38.00;;;;;9.89;100.00;101750.84;4912469;29;45393;-83
2023/02/16 03:54:40;;;;;;;;;41.00;37.00;;;;;9.87;100.00;101755.19;4911219;29;45920;-83
2023/02/16 03:57:06;;;;;;;;;41.00;35.33;;;;;9.77;100.00;101747.78;4894040;29;47121;-83
2023/02/16 03:59:31;;;;;;;;;37.33;35.33;;;;;9.74;100.00;101753.00;4911608;29;45374;-83
2023/02/16 04:01:56;;;;;;;;;45.67;35.00;;;;;9.69;100.00;101755.47;4894380;29;45671;-83
2023/02/16 04:04:22;;;;;;;;;41.33;37.67;;;;;9.66;100.00;101755.41;4911928;29;45474;-83
2023/02/16 04:06:47;;;;;;;;;51.33;41.33;;;;;9.59;100.00;101748.06;4911478;29;46287;-82
2023/02/16 04:09:12;;;;;;;;;48.67;40.00;;;;;9.58;100.00;101744.50;4910958;29;45449;-83
2023/02/16 04:14:22;;;;;;;;;43.00;38.00;;;;;9.54;100.00;101739.03;4910475;29;45485;-83
2023/02/16 04:16:47;;;;;;;;;37.67;36.00;;;;;9.47;100.00;101737.00;4912423;29;45441;-83
2023/02/16 04:19:12;;;;;;;;;46.00;40.00;;;;;9.49;100.00;101738.84;4910808;29;45361;-83
2023/02/16 04:21:38;;;;;;;;;46.33;38.00;;;;;9.50;100.00;101742.44;4911368;29;45433;-83
2023/02/16 04:24:04;;;;;;;;;46.67;38.67;;;;;9.45;100.00;101749.34;4894099;29;45378;-83
2023/02/16 04:26:30;;;;;;;;;43.00;37.33;;;;;9.43;100.00;101738.66;4893221;29;47155;-83
2023/02/16 04:28:56;;;;;;;;;37.00;32.67;;;;;9.37;100.00;101744.69;4894047;29;45683;-83
2023/02/16 04:31:21;;;;;;;;;44.00;38.00;;;;;9.28;100.00;101736.38;4910930;29;45468;-82
2023/02/16 04:33:46;;;;;;;;;47.67;39.33;;;;;9.26;100.00;101738.06;4912188;29;45310;-83
2023/02/16 04:36:12;;;;;;;;;44.00;38.00;;;;;9.26;100.00;101735.41;4909671;29;48119;-82
2023/02/16 04:38:37;;;;;;;;;49.00;41.00;;;;;9.21;100.00;101737.03;4894445;29;45730;-83
2023/02/16 04:41:45;;;;;;;;;47.00;36.67;;;;;9.33;100.00;101748.06;4893519;29;45946;-83
2023/02/16 04:44:11;;;;;;;;;45.33;40.33;;;;;9.21;100.00;101745.00;4911471;29;45908;-83
2023/02/16 04:46:36;;;;;;;;;47.67;39.00;;;;;9.20;100.00;101743.16;4910276;29;47016;-83
2023/02/16 04:49:02;;;;;;;;;43.33;38.00;;;;;9.17;100.00;101743.03;4893923;29;45463;-83
2023/02/16 04:51:27;;;;;;;;;44.67;38.67;;;;;9.20;100.00;101748.47;4909888;29;45450;-83
2023/02/16 04:53:52;;;;;;;;;41.67;38.33;;;;;9.22;100.00;101752.09;4893380;29;45434;-83
2023/02/16 04:56:18;;;;;;;;;40.00;36.00;;;;;9.20;100.00;101749.38;4912892;28;45958;-83
2023/02/16 04:58:43;;;;;;;;;39.33;36.67;;;;;9.22;100.00;101749.44;4894221;29;45479;-82
2023/02/16 05:01:17;;;;;;;;;52.00;40.67;;;;;9.27;100.00;101761.13;4894421;29;45394;-82
2023/02/16 05:03:43;;;;;;;;;40.67;33.67;;;;;9.29;100.00;101764.75;4894943;28;45464;-82
2023/02/16 05:06:08;;;;;;;;;45.00;40.00;;;;;9.27;100.00;101753.16;4911409;29;45428;-82
2023/02/16 05:08:33;;;;;;;;;47.67;41.33;;;;;9.22;100.00;101749.44;4911571;29;45365;-82
2023/02/16 05:16:27;;;;;;;;;47.67;37.67;;;;;9.34;100.00;101744.56;4930712;28;45412;-82
2023/02/16 05:18:52;;;;;;;;;39.00;33.00;;;;;9.31;100.00;101755.09;4925679;28;45407;-81
2023/02/16 05:21:29;;;;;;;;;43.33;37.67;;;;;9.33;100.00;101765.72;4911188;29;45391;-83
2023/02/16 05:23:55;;;;;;;;;48.67;39.00;;;;;9.31;100.00;101763.03;4911481;29;45354;-82
2023/02/16 05:26:21;;;;;;;;;40.00;36.00;;;;;9.27;100.00;101753.16;4893171;29;48240;-81
2023/02/16 05:28:46;;;;;;;;;41.67;37.67;;;;;9.27;100.00;101755.81;4893266;29;46045;-82
2023/02/16 05:31:13;;;;;;;;;40.67;37.67;;;;;9.35;100.00;101757.00;4910481;29;45310;-82
2023/02/16 05:33:38;;;;;;;;;49.00;39.00;;;;;9.30;100.00;101745.28;4910525;29;44888;-82
2023/02/16 05:36:04;;;;;;;;;45.67;38.33;;;;;9.37;100.00;101738.44;4891767;29;48141;-82
2023/02/16 05:38:29;;;;;;;;;38.33;35.67;;;;;9.33;100.00;101734.81;4910190;29;45385;-82
2023/02/16 05:40:54;;;;;;;;;44.67;38.67;;;;;9.37;100.00;101739.38;4910807;29;45404;-82
2023/02/16 05:43:20;;;;;;;;;42.33;36.00;;;;;9.43;100.00;101741.31;4893328;29;46002;-82
2023/02/16 05:45:45;;;;;;;;;45.33;41.67;;;;;9.43;100.00;101741.31;4910346;29;45431;-82
2023/02/16 05:48:10;;;;;;;;;48.67;38.00;;;;;9.49;100.00;101745.94;4910615;29;45433;-82
2023/02/16 05:50:36;;;;;;;;;54.00;42.67;;;;;9.50;100.00;101743.34;4893711;29;44824;-83
2023/02/16 05:53:01;;;;;;;;;43.67;38.00;;;;;9.49;100.00;101735.31;4909309;29;45381;-82
2023/02/16 05:55:27;;;;;;;;;41.67;37.33;;;;;9.48;100.00;101744.16;4909541;29;46048;-82
2023/02/16 05:57:53;;;;;;;;;45.33;39.67;;;;;9.54;100.00;101742.59;4892924;29;45682;-82
2023/02/16 06:00:18;;;;;;;;;43.33;39.00;;;;;9.48;100.00;101733.53;4892812;29;45383;-82
2023/02/16 06:02:44;;;;;;;;;50.33;42.33;;;;;9.52;100.00;101746.94;4892749;29;44856;-82
2023/02/16 06:05:09;;;;;;;;;50.67;39.33;;;;;9.50;100.00;101732.72;4891445;29;47100;-82
2023/02/16 06:07:42;;;;;;;;;41.00;36.67;;;;;9.50;100.00;101739.78;4878498;29;45450;-82
2023/02/16 06:10:08;;;;;;;;;44.00;37.00;;;;;9.53;100.00;101747.84;4893423;29;45825;-82
2023/02/16 06:12:33;;;;;;;;;44.00;38.33;;;;;9.54;100.00;101750.56;4894013;29;45442;-82
2023/02/16 06:15:00;;;;;;;;;41.33;36.33;;;;;9.50;100.00;101735.38;4910257;29;46115;-82
2023/02/16 06:17:27;;;;;;;;;36.33;32.67;;;;;9.53;100.00;101737.22;4910796;29;45775;-82
2023/02/16 06:19:53;;;;;;;;;52.00;40.33;;;;;9.61;100.00;101743.69;4894025;29;45391;-82
2023/02/16 06:22:18;;;;;;;;;45.33;38.33;;;;;9.64;100.00;101746.47;4911321;29;45314;-82
2023/02/16 06:24:43;;;;;;;;;41.33;36.33;;;;;9.58;100.00;101739.19;4892943;29;46822;-83
2023/02/16 06:27:09;;;;;;;;;43.67;38.00;;;;;9.66;100.00;101750.09;4913472;29;45533;-83
2023/02/16 06:29:34;;;;;;;;;47.33;41.67;;;;;9.65;100.00;101758.88;4914058;29;45721;-84
2023/02/16 06:31:59;;;;;;;;;44.33;39.00;;;;;9.61;100.00;101756.97;4895355;29;44817;-82
2023/02/16 06:34:32;;;;;;;;;44.00;38.00;;;;;9.61;100.00;101756.97;4893780;29;47613;-82
2023/02/16 06:37:04;;;;;;;;;50.33;42.00;;;;;9.73;100.00;101773.31;4905348;29;45739;-82
2023/02/16 06:39:29;;;;;;;;;49.67;41.00;;;;;9.66;100.00;101770.44;4889663;29;45514;-83
2023/02/16 06:41:55;;;;;;;;;52.33;44.33;;;;;9.74;100.00;101785.78;4908670;29;45323;-82
2023/02/16 06:44:20;;;;;;;;;55.00;44.33;;;;;9.78;100.00;101785.03;4910142;29;45190;-82
2023/02/16 06:46:47;;;;;;;;;51.67;42.00;;;;;9.89;100.00;101790.69;4891161;29;45320;-82
2023/02/16 06:49:16;;;;;;;;;55.00;43.67;;;;;9.92;100.00;101785.50;4892248;29;45447;-83
2023/02/16 06:51:42;;;;;;;;;57.33;47.33;;;;;9.98;100.00;101799.00;4890043;29;45470;-83
2023/02/16 06:54:08;;;;;;;;;60.00;45.33;;;;;9.96;100.00;101790.06;4891495;29;46982;-83
2023/02/16 06:56:34;;;;;;;;;54.00;44.33;;;;;10.04;100.00;101795.63;4892135;29;45455;-82
2023/02/16 06:59:01;;;;;;;;;53.67;43.00;;;;;10.21;100.00;101810.38;4910592;29;45506;-82
2023/02/16 07:01:26;;;;;;;;;49.33;41.67;;;;;10.20;100.00;101808.56;4894482;29;44936;-82
2023/02/16 07:03:53;;;;;;;;;56.33;46.00;;;;;10.29;100.00;101807.06;4909554;29;45751;-82
2023/02/16 07:06:20;;;;;;;;;59.33;47.00;;;;;10.31;100.00;101805.41;4892370;29;45463;-83
2023/02/16 07:08:45;;;;;;;;;54.67;46.00;;;;;10.31;100.00;101808.94;4910019;29;45480;-81
2023/02/16 07:11:48;;;;;;;;;54.67;46.00;;;;;10.41;100.00;101807.50;4908833;29;45465;-82
2023/02/16 07:14:13;;;;;;;;;60.00;48.67;;;;;10.28;100.00;101815.88;4909089;29;46352;-83
2023/02/16 07:16:39;;;;;;;;;60.67;48.67;;;;;10.28;100.00;101810.56;4908261;29;45413;-84
2023/02/16 07:19:05;;;;;;;;;64.00;51.00;;;;;10.32;100.00;101820.47;4891845;29;45515;-83
2023/02/16 07:21:30;;;;;;;;;56.33;46.00;;;;;10.34;100.00;101818.78;4888945;29;45468;-82
2023/02/16 07:23:55;;;;;;;;;57.00;46.67;;;;;10.39;100.00;101831.38;4893919;29;46920;-83
2023/02/16 07:26:21;;;;;;;;;51.67;44.00;;;;;10.41;100.00;101828.75;4890358;29;45599;-84
2023/02/16 07:28:49;;;;;;;;;53.33;43.67;;;;;10.56;100.00;101831.94;4889708;29;45881;-84
2023/02/16 07:31:15;;;;;;;;;53.67;45.67;;;;;10.54;100.00;101828.31;4893519;29;45267;-83
2023/02/16 07:33:41;;;;;;;;;56.00;44.00;;;;;10.60;100.00;101831.16;4892103;29;47770;-83
2023/02/16 07:36:13;;;;;;;;;53.67;43.33;;;;;10.67;100.00;101831.34;4914826;28;45664;-82
2023/02/16 07:38:40;;;;;;;;;57.00;43.33;;;;;10.61;100.00;101819.66;4911908;28;45386;-83
2023/02/16 07:41:09;;;;;;;;;50.67;42.33;;;;;10.73;100.00;101829.78;4928670;28;45388;-83
2023/02/16 07:43:35;;;;;;;;;52.67;42.00;;;;;10.73;100.00;101831.56;4924078;28;47309;-84
2023/02/16 07:46:01;;;;;;;;;46.67;41.67;;;;;10.75;100.00;101829.84;4912163;29;45430;-83
2023/02/16 07:48:26;;;;;;;;;42.00;37.67;;;;;10.78;100.00;101825.47;4913021;29;45495;-83
2023/02/16 07:50:52;;;;;;;;;43.00;38.67;;;;;10.74;100.00;101812.06;4911649;28;45439;-83
2023/02/16 07:56:40;;;;;;;;;51.00;42.67;;;;;10.76;100.00;101823.66;4910964;29;45878;-84
2023/02/16 07:59:05;;;;;;;;;52.00;41.33;;;;;10.73;100.00;101829.78;4911922;28;46549;-83
2023/02/16 08:01:33;;;;;;;;;46.00;40.00;;;;;10.73;100.00;101842.19;4929857;28;45420;-83
2023/02/16 08:03:58;;;;;;;;;53.67;44.00;;;;;10.71;100.00;101842.13;4908736;29;47826;-83
2023/02/16 08:06:24;;;;;;;;;54.00;45.67;;;;;10.74;100.00;101850.19;4909246;29;45450;-83
2023/02/16 08:12:13;;;;;;;;;56.33;45.00;;;;;10.85;100.00;101847.88;4911032;29;45421;-83
2023/02/16 08:14:39;;;;;;;;;51.67;42.00;;;;;10.80;100.00;101844.16;4893854;29;47006;-84
2023/02/16 08:17:07;;;;;;;;;54.00;43.33;;;;;10.81;100.00;101843.31;4894625;29;45303;-82
2023/02/16 08:19:33;;;;;;;;;47.00;41.33;;;;;10.82;100.00;101843.34;4894064;29;45684;-82
2023/02/16 08:22:02;;;;;;;;;46.00;39.00;;;;;10.86;100.00;101841.69;4878684;29;45533;-83
2023/02/16 08:24:27;;;;;;;;;43.00;38.67;;;;;10.85;100.00;101829.25;4902345;28;46277;-83
2023/02/16 08:26:54;;;;;;;;;45.00;36.67;;;;;10.92;100.00;101838.31;4911578;28;45444;-82
2023/02/16 08:29:21;;;;;;;;;43.67;39.67;;;;;10.95;100.00;101834.00;4929565;28;44809;-84
2023/02/16 08:31:48;;;;;;;;;53.67;43.33;;;;;11.00;100.00;101837.69;4905379;28;45327;-83
2023/02/16 08:34:15;;;;;;;;;51.00;41.00;;;;;10.99;100.00;101825.25;4912120;28;47109;-83
2023/02/16 08:36:43;;;;;;;;;39.00;37.00;;;;;10.99;100.00;101819.94;4898141;28;46155;-83
2023/02/16 08:39:31;;;;;;;;;43.67;36.67;;;;;10.96;100.00;101813.59;4897274;28;44939;-84
2023/02/16 08:42:00;;;;;;;;;53.00;41.67;;;;;11.02;100.00;101813.78;4914051;28;45283;-84
2023/02/16 08:44:30;;;;;;;;;43.00;38.00;;;;;10.88;100.00;101786.75;4915720;28;46200;-83
2023/02/16 08:47:04;;;;;;;;;52.67;42.33;;;;;11.10;100.00;101827.31;4929751;28;44866;-84
2023/02/16 08:49:33;;;;;;;;;52.00;43.33;;;;;11.09;100.00;101826.44;4902354;29;44835;-83
2023/02/16 08:52:30;;;;;;;;;50.67;38.33;;;;;11.02;100.00;101782.72;4899833;28;45581;-83
2023/02/16 08:54:57;;;;;;;;;54.00;41.67;;;;;11.26;100.00;101821.59;4901218;29;46739;-83
2023/02/16 08:57:36;;;;;;;;;48.33;41.00;;;;;11.21;100.00;101820.56;4911536;28;45472;-82
2023/02/16 09:00:37;;;;;;;;;50.00;41.67;;;;;11.32;100.00;101826.19;4917344;28;45653;-83
2023/02/16 09:03:13;;;;;;;;;54.33;42.67;;;;;11.45;100.00;101833.66;4915140;28;45385;-84
2023/02/16 09:09:12;;;;;;;;;55.33;42.33;;;;;11.43;100.00;101823.81;4915546;28;45602;-84
2023/02/16 09:11:38;;;;;;;;;50.33;40.00;;;;;11.39;100.00;101826.41;4894403;29;45406;-82
2023/02/16 09:14:05;;;;;;;;;52.00;39.67;;;;;11.37;100.00;101816.53;4905417;28;44962;-83
2023/02/16 09:16:37;;;;;;;;;50.00;41.67;;;;;11.48;100.00;101835.50;4913478;28;46888;-82
2023/02/16 09:19:02;;;;;;;;;44.50;37.50;;;;;11.70;100.00;101861.88;4923824;28;45468;-82
2023/02/16 09:21:31;;;;;;;;;47.33;40.67;;;;;11.65;100.00;101838.63;4912021;28;45476;-84
2023/02/16 09:27:59;;;;;;;;;51.67;41.00;;;;;11.85;100.00;101861.38;4899864;28;45518;-83
2023/02/16 09:34:06;;;;;;;;;44.67;39.00;;;;;11.76;100.00;101810.53;4818066;29;45438;-83
2023/02/16 09:37:07;;;;;;;;;;;;;;;;;;;;;
2023/02/16 09:43:40;;;;;;;;;52.67;42.33;;;;;12.37;100.00;101870.78;4723511;30;45571;-82
2023/02/16 09:46:15;;;;;;;;;47.00;41.00;;;;;12.42;100.00;101841.53;4756717;29;45515;-83
2023/02/16 09:48:44;;;;;;;;;51.33;40.67;;;;;12.75;100.00;101859.22;4742248;30;45784;-84
2023/02/16 09:51:23;;;;;;;;;49.67;40.33;;;;;12.93;100.00;101864.97;4742176;29;45779;-83
2023/02/16 09:54:02;;;;;;;;;41.67;33.33;;;;;13.05;100.00;101855.41;4760858;29;45390;-82
2023/02/16 09:56:40;;;;;;;;;42.33;36.00;;;;;13.23;100.00;101862.94;4751611;29;45629;-84
2023/02/16 09:59:37;;;;;;;;;38.33;36.00;;;;;13.39;100.00;101863.34;4734003;29;45554;-82
2023/02/16 10:02:40;;;;;;;;;40.33;36.00;;;;;13.49;100.00;101875.13;4766395;29;46086;-83
2023/02/16 10:05:17;;;;;;;;;;;;;;;;;;;;;
2023/02/16 10:08:24;;;;;;;;;;;;;;;;;;;;;
2023/02/16 10:12:08;;;;;;;;;;;;;;;;;;;;;
2023/02/16 10:18:48;;;;;;;;;37.67;34.00;;;;;14.09;100.00;101860.19;4799223;29;45408;-83
2023/02/16 10:24:56;;;;;;;;;;;;;;;;;;;;;
2023/02/16 10:27:44;;;;;;;;;37.67;33.67;;;;;14.07;100.00;101843.19;4905259;29;75089;-83
2023/02/16 10:31:04;;;;;;;;;;;;;;;;;;;;;
2023/02/16 10:34:16;;;;;;;;;35.33;32.00;;;;;14.27;100.00;101858.69;4907921;29;67954;-84
2023/02/16 10:37:14;;;;;;;;;36.00;33.33;;;;;14.33;100.00;101866.84;4909126;28;44980;-83
2023/02/16 10:43:10;;;;;;;;;42.33;35.67;;;;;14.34;100.00;101860.59;4921465;28;45357;-83
2023/02/16 10:46:41;;;;;;;;;36.00;32.67;;;;;13.99;100.00;101827.00;4892804;28;45506;-84
2023/02/16 10:49:19;;;;;;;;;37.67;31.33;;;;;13.80;100.00;101816.88;4866790;29;45483;-82
2023/02/16 10:51:59;;;;;;;;;35.33;32.00;;;;;14.00;100.00;101862.72;4882977;29;45521;-84
2023/02/16 10:55:14;;;;;;;;;35.67;29.67;;;;;13.65;100.00;101819.25;4887894;29;44871;-83
2023/02/16 10:57:48;;;;;;;;;34.33;30.00;;;;;13.85;100.00;101857.97;4861017;29;45403;-83
2023/02/16 11:11:58;;;;;;;;;33.00;30.00;;;;;14.42;100.00;101869.63;4861599;29;44895;-83
2023/02/16 11:15:04;;;;;;;;;19.33;19.33;;;;;14.25;100.00;101814.97;4852314;29;45401;-83
2023/02/16 11:24:36;;;;;;;;;32.67;29.67;;;;;14.78;100.00;101850.63;4843785;29;45479;-84
2023/02/16 11:27:19;;;;;;;;;32.67;29.00;;;;;14.83;100.00;101837.31;4894801;29;45648;-83
2023/02/16 11:33:25;;;;;;;;;28.33;27.00;;;;;14.74;100.00;101803.22;4906533;29;45469;-83
2023/02/16 11:35:55;;;;;;;;;31.33;30.00;;;;;14.93;100.00;101828.50;4893097;29;45449;-83
2023/02/16 11:38:34;;;;;;;;;33.33;31.00;;;;;15.02;100.00;101830.41;4891104;29;46228;-83
2023/02/16 11:41:06;;;;;;;;;32.00;25.33;;;;;14.96;100.00;101828.53;4921095;28;46465;-84
2023/02/16 11:50:56;;;;;;;;;28.00;26.67;;;;;14.94;100.00;101826.72;4909571;28;45510;-84
2023/02/16 11:59:34;;;;;;;;;30.00;25.67;;;;;14.89;100.00;101799.88;4860878;29;45603;-84
2023/02/16 12:02:45;;;;;;;;;27.67;27.00;;;;;15.09;100.00;101809.94;4853299;29;45417;-86
2023/02/16 12:05:44;;;;;;;;;;;;;;;;;;;;;
2023/02/16 12:09:08;;;;;;;;;25.67;24.33;;;;;15.12;100.00;101808.19;4867981;29;71920;-83
2023/02/16 12:12:12;;;;;;;;;23.67;22.33;;;;;14.80;100.00;101768.53;4849526;29;45028;-80
2023/02/16 12:15:11;;;;;;;;;26.33;23.67;;;;;15.05;100.00;101806.34;4876374;29;45533;-82
2023/02/16 12:17:43;;;;;;;;;20.00;20.00;;;;;14.84;100.00;101785.50;4867447;29;45526;-83
2023/02/16 12:20:36;;;;;;;;;30.33;22.67;;;;;15.06;100.00;101801.88;4861190;29;44893;-83
2023/02/16 12:23:33;;;;;;;;;23.33;18.33;;;;;15.04;100.00;101791.13;4860448;29;45803;-84
2023/02/16 12:25:59;;;;;;;;;15.33;14.00;;;;;15.05;100.00;101797.38;4866763;29;45582;-82
2023/02/16 12:28:51;;;;;;;;;16.00;13.67;;;;;15.22;100.00;101801.19;4854958;29;47022;-82
2023/02/16 12:31:38;;;;;;;;;19.67;17.33;;;;;15.48;100.00;101809.53;4865407;29;45449;-83
2023/02/16 12:34:26;;;;;;;;;15.00;14.67;;;;;15.70;100.00;101797.25;4850826;29;45948;-83
2023/02/16 12:37:10;;;;;;;;;14.00;12.00;;;;;15.82;100.00;101793.81;4893881;28;44813;-83
2023/02/16 12:43:45;;;;;;;;;12.00;12.00;;;;;16.22;100.00;101778.06;4923994;28;44822;-83
2023/02/16 12:46:17;;;;;;;;;14.33;13.00;;;;;16.15;100.00;101771.72;4909771;28;45448;-81
2023/02/16 12:48:59;;;;;;;;;10.33;8.67;;;;;16.22;100.00;101783.44;4909331;29;45726;-82
2023/02/16 12:51:35;;;;;;;;;13.67;13.67;;;;;16.17;100.00;101766.38;4910754;28;47226;-83
2023/02/16 12:54:48;;;;;;;;;14.00;14.00;;;;;16.23;100.00;101784.31;4906625;29;45386;-82
2023/02/16 12:57:19;;;;;;;;;15.00;15.00;;;;;16.23;100.00;101782.53;4916927;28;45394;-81
2023/02/16 13:00:01;;;;;;;;;17.67;14.67;;;;;16.29;100.00;101779.88;4933673;28;45461;-82
2023/02/16 13:02:34;;;;;;;;;15.67;15.00;;;;;16.39;100.00;101770.09;4928877;28;45491;-82
2023/02/16 13:05:22;;;;;;;;;12.67;9.00;;;;;16.52;100.00;101780.06;4911934;28;45602;-83
2023/02/16 13:07:55;;;;;;;;;17.67;16.00;;;;;16.60;100.00;101781.00;4918934;28;45415;-84
2023/02/16 13:10:32;;;;;;;;;14.67;14.00;;;;;16.68;100.00;101770.25;4919171;28;45977;-84
2023/02/16 13:13:16;;;;;;;;;15.67;15.33;;;;;16.60;100.00;101762.19;4901468;28;46888;-81
2023/02/16 13:15:51;;;;;;;;;16.67;12.33;;;;;16.70;100.00;101767.59;4909865;28;45641;-83
2023/02/16 13:18:29;;;;;;;;;18.00;14.00;;;;;16.69;98.34;101742.53;4908974;28;45463;-83
2023/02/16 13:21:09;;;;;;;;;6.00;3.33;;;;;16.79;100.00;101756.91;4918811;28;46376;-82
2023/02/16 13:23:47;;;;;;;;;27.33;27.33;;;;;16.91;100.00;101746.25;4910614;28;47331;-83
2023/02/16 13:26:21;;;;;;;;;28.00;25.00;;;;;16.97;99.98;101743.59;4901899;28;44865;-83
2023/02/16 13:29:13;;;;;;;;;11.00;10.00;;;;;17.05;96.95;101737.31;4907632;29;45482;-83
2023/02/16 13:31:46;;;;;;;;;12.00;11.00;;;;;16.93;91.74;101722.06;4895442;28;45469;-83
2023/02/16 13:34:20;;;;;;;;;8.00;8.00;;;;;16.99;94.61;101736.41;4905952;28;47057;-83
2023/02/16 13:37:15;;;;;;;;;13.00;12.33;;;;;16.95;90.88;101740.00;4907625;28;45437;-83
2023/02/16 13:40:06;;;;;;;;;10.00;10.00;;;;;16.96;93.43;101733.72;4905249;28;45518;-83
2023/02/16 13:42:35;;;;;;;;;10.67;9.33;;;;;16.92;94.51;101737.28;4910773;28;45451;-82
2023/02/16 13:45:11;;;;;;;;;11.00;6.67;;;;;17.00;93.05;101729.25;4929056;28;45480;-83